createdAt,value
2019-02-05T00:02:01.711Z,86.60
2019-02-05T00:04:31.084Z,86.09
2019-02-05T00:07:00.485Z,85.60
2019-02-05T00:09:29.844Z,84.97
2019-02-05T00:11:59.209Z,84.48
2019-02-05T00:14:28.616Z,84.09
2019-02-05T00:16:57.992Z,84.02
2019-02-05T00:19:27.419Z,83.72
2019-02-05T00:21:56.780Z,83.36
2019-02-05T00:24:26.235Z,83.55
2019-02-05T00:26:55.623Z,83.64
2019-02-05T00:29:24.973Z,83.49
2019-02-05T00:31:54.345Z,83.12
2019-02-05T00:34:23.748Z,83.26
2019-02-05T00:36:53.166Z,83.30
2019-02-05T00:39:22.574Z,83.17
2019-02-05T00:41:52.010Z,83.27
2019-02-05T00:44:21.440Z,83.20
2019-02-05T00:46:50.855Z,83.66
2019-02-05T00:49:20.361Z,83.42
2019-02-05T00:51:49.976Z,83.25
2019-02-05T00:54:19.320Z,83.23
2019-02-05T00:56:49.010Z,82.98
2019-02-05T00:59:18.423Z,83.33
2019-02-05T01:01:47.803Z,83.20
2019-02-05T01:04:17.280Z,82.57
2019-02-05T01:06:46.695Z,82.41
2019-02-05T01:09:16.077Z,82.04
2019-02-05T01:11:45.958Z,81.71
2019-02-05T01:14:15.372Z,80.87
2019-02-05T01:16:44.733Z,81.54
2019-02-05T01:19:14.142Z,81.53
2019-02-05T01:21:43.567Z,81.45
2019-02-05T01:24:12.975Z,81.47
2019-02-05T01:26:42.658Z,81.86
2019-02-05T01:29:12.026Z,81.81
2019-02-05T01:31:41.510Z,81.47
2019-02-05T01:34:10.928Z,81.15
2019-02-05T01:36:40.334Z,81.07
2019-02-05T01:39:10.170Z,81.14
2019-02-05T01:41:39.547Z,81.22
2019-02-05T01:44:08.924Z,80.95
2019-02-05T01:46:38.286Z,81.14
2019-02-05T01:49:07.665Z,81.19
2019-02-05T01:51:37.062Z,81.40
2019-02-05T01:54:06.488Z,81.39
2019-02-05T01:56:40.773Z,81.26
2019-02-05T01:59:06.929Z,81.61
2019-02-05T02:01:36.329Z,81.52
2019-02-05T02:04:05.788Z,81.26
2019-02-05T02:06:35.182Z,81.45
2019-02-05T02:09:05.290Z,81.45
2019-02-05T02:11:34.646Z,81.33
2019-02-05T02:14:04.448Z,81.25
2019-02-05T02:16:33.838Z,81.22
2019-02-05T02:19:03.432Z,81.22
2019-02-05T02:21:32.822Z,81.24
2019-02-05T02:24:02.189Z,81.44
2019-02-05T02:26:31.570Z,81.02
2019-02-05T02:29:00.938Z,80.75
2019-02-05T02:31:30.335Z,80.88
2019-02-05T02:33:59.841Z,80.77
2019-02-05T02:36:29.233Z,80.68
2019-02-05T02:38:58.565Z,80.37
2019-02-05T02:41:27.945Z,80.37
2019-02-05T02:43:58.670Z,80.33
2019-02-05T02:46:28.069Z,80.68
2019-02-05T02:48:57.444Z,80.56
2019-02-05T02:51:26.871Z,80.59
2019-02-05T02:53:56.742Z,80.27
2019-02-05T02:56:26.140Z,80.17
2019-02-05T02:58:55.510Z,80.20
2019-02-05T03:01:24.927Z,80.09
2019-02-05T03:03:54.314Z,79.83
2019-02-05T03:06:23.711Z,80.05
2019-02-05T03:08:53.282Z,80.16
2019-02-05T03:11:22.663Z,80.66
2019-02-05T03:13:52.068Z,80.77
2019-02-05T03:16:21.507Z,80.72
2019-02-05T03:18:50.956Z,80.77
2019-02-05T03:21:20.394Z,80.74
2019-02-05T03:23:49.869Z,80.97
2019-02-05T03:26:20.788Z,81.09
2019-02-05T03:28:50.144Z,81.36
2019-02-05T03:31:19.534Z,80.64
2019-02-05T03:33:48.946Z,81.29
2019-02-05T03:36:18.297Z,81.21
2019-02-05T03:38:47.649Z,81.34
2019-02-05T03:41:17.007Z,81.31
2019-02-05T03:43:46.566Z,81.44
2019-02-05T03:46:17.868Z,81.42
2019-02-05T03:48:50.315Z,81.83
2019-02-05T03:51:57.273Z,81.79
2019-02-05T03:55:16.813Z,81.17
2019-02-05T03:58:25.138Z,81.45
2019-02-05T04:01:43.353Z,81.55
2019-02-05T04:05:08.955Z,81.78
2019-02-05T04:08:30.325Z,81.53
2019-02-05T04:11:41.356Z,82.14
2019-02-05T04:14:47.395Z,81.97
2019-02-05T04:17:53.344Z,81.74
2019-02-05T04:21:12.523Z,81.57
2019-02-05T04:24:11.687Z,81.42
2019-02-05T04:27:43.771Z,81.48
2019-02-05T04:30:25.936Z,81.77
2019-02-05T04:33:23.433Z,82.22
2019-02-05T04:36:44.047Z,82.61
2019-02-05T04:39:39.150Z,82.74
2019-02-05T04:42:53.069Z,82.49
2019-02-05T04:45:44.168Z,82.25
2019-02-05T04:49:03.026Z,82.21
2019-02-05T04:52:03.473Z,82.14
2019-02-05T04:54:54.077Z,82.88
2019-02-05T04:57:41.524Z,83.35
2019-02-05T05:00:37.917Z,83.53
2019-02-05T05:03:39.242Z,83.42
2019-02-05T05:06:37.724Z,83.09
2019-02-05T05:09:23.420Z,83.22
2019-02-05T05:11:52.887Z,83.48
2019-02-05T05:14:22.346Z,83.29
2019-02-05T05:16:51.930Z,82.95
2019-02-05T05:19:21.882Z,82.92
2019-02-05T05:21:51.695Z,83.09
2019-02-05T05:24:21.169Z,83.06
2019-02-05T05:26:51.084Z,82.92
2019-02-05T05:29:20.539Z,82.61
2019-02-05T05:31:52.072Z,82.60
2019-02-05T05:34:21.822Z,82.31
2019-02-05T05:36:50.399Z,82.11
2019-02-05T05:39:20.363Z,82.06
2019-02-05T05:41:49.818Z,82.36
2019-02-05T05:44:19.220Z,82.24
2019-02-05T05:46:48.666Z,82.33
2019-02-05T05:49:18.119Z,82.67
2019-02-05T05:51:47.544Z,82.61
2019-02-05T05:54:17.073Z,82.72
2019-02-05T05:56:49.274Z,82.49
2019-02-05T05:59:29.107Z,82.54
2019-02-05T06:02:04.080Z,82.52
2019-02-05T06:04:39.291Z,82.32
2019-02-05T06:07:19.587Z,82.74
2019-02-05T06:09:52.779Z,83.03
2019-02-05T06:12:23.257Z,82.87
2019-02-05T06:15:01.439Z,83.29
2019-02-05T06:17:34.314Z,83.63
2019-02-05T06:20:07.733Z,83.74
2019-02-05T06:22:47.143Z,84.31
2019-02-05T06:25:29.138Z,84.60
2019-02-05T06:28:15.289Z,84.72
2019-02-05T06:30:57.385Z,84.64
2019-02-05T06:33:33.819Z,84.09
2019-02-05T06:36:03.287Z,84.06
2019-02-05T06:38:32.673Z,84.30
2019-02-05T06:41:02.054Z,84.35
2019-02-05T06:43:31.444Z,83.62
2019-02-05T06:46:01.008Z,83.25
2019-02-05T06:48:30.704Z,83.72
2019-02-05T06:51:00.101Z,84.08
2019-02-05T06:53:30.453Z,83.74
2019-02-05T06:55:59.881Z,84.00
2019-02-05T06:58:29.370Z,84.05
2019-02-05T07:00:59.068Z,83.75
2019-02-05T07:03:30.261Z,83.44
2019-02-05T07:05:59.627Z,82.81
2019-02-05T07:08:29.063Z,82.91
2019-02-05T07:10:58.456Z,82.49
2019-02-05T07:13:27.867Z,82.61
2019-02-05T07:15:57.617Z,81.85
2019-02-05T07:18:27.056Z,82.04
2019-02-05T07:20:56.496Z,82.21
2019-02-05T07:23:25.906Z,81.53
2019-02-05T07:25:55.417Z,81.70
2019-02-05T07:28:24.801Z,81.38
2019-02-05T07:30:54.239Z,81.24
2019-02-05T07:33:23.667Z,80.89
2019-02-05T07:35:53.487Z,81.07
2019-02-05T07:38:22.932Z,80.78
2019-02-05T07:40:52.333Z,80.78
2019-02-05T07:43:21.684Z,80.97
2019-02-05T07:45:51.094Z,80.89
2019-02-05T07:48:21.472Z,81.12
2019-02-05T07:50:51.083Z,80.90
2019-02-05T07:53:20.464Z,81.40
2019-02-05T07:55:49.778Z,81.18
2019-02-05T07:58:19.204Z,80.84
2019-02-05T08:00:48.570Z,80.93
2019-02-05T08:03:17.992Z,80.30
2019-02-05T08:05:47.388Z,80.42
2019-02-05T08:08:16.806Z,80.31
2019-02-05T08:10:46.378Z,79.85
2019-02-05T08:13:16.000Z,79.83
2019-02-05T08:15:45.387Z,79.61
2019-02-05T08:18:14.774Z,79.30
2019-02-05T08:20:44.231Z,79.26
2019-02-05T08:23:14.001Z,80.06
2019-02-05T08:25:43.865Z,79.44
2019-02-05T08:28:13.324Z,79.57
2019-02-05T08:30:45.238Z,79.54
2019-02-05T08:33:14.720Z,79.00
2019-02-05T08:35:44.126Z,78.80
2019-02-05T08:38:13.765Z,78.43
2019-02-05T08:40:43.626Z,78.25
2019-02-05T08:43:13.105Z,78.26
2019-02-05T08:45:42.478Z,77.99
2019-02-05T08:48:12.717Z,78.47
2019-02-05T08:50:42.112Z,78.49
2019-02-05T08:53:11.949Z,77.84
2019-02-05T08:55:41.443Z,77.75
2019-02-05T08:58:12.065Z,77.60
2019-02-05T09:00:41.714Z,77.42
2019-02-05T09:03:11.567Z,78.08
2019-02-05T09:05:41.016Z,78.01
2019-02-05T09:08:10.656Z,78.05
2019-02-05T09:10:40.481Z,77.90
2019-02-05T09:13:10.247Z,77.57
2019-02-05T09:15:39.712Z,77.33
2019-02-05T09:18:09.437Z,76.79
2019-02-05T09:20:39.024Z,77.05
2019-02-05T09:23:08.554Z,76.82
2019-02-05T09:25:37.892Z,77.16
2019-02-05T09:28:07.307Z,77.41
2019-02-05T09:30:37.060Z,77.11
2019-02-05T09:33:09.618Z,76.88
2019-02-05T09:35:38.997Z,76.93
2019-02-05T09:38:08.351Z,76.40
2019-02-05T09:40:37.824Z,76.21
2019-02-05T09:43:07.395Z,76.34
2019-02-05T09:45:37.212Z,76.13
2019-02-05T09:48:06.660Z,75.79
2019-02-05T09:50:44.275Z,75.78
2019-02-05T09:53:07.176Z,75.46
2019-02-05T09:55:36.681Z,75.47
2019-02-05T09:58:08.179Z,75.15
2019-02-05T10:00:39.660Z,75.03
2019-02-05T10:03:09.520Z,74.83
2019-02-05T10:05:39.030Z,74.71
2019-02-05T10:08:08.547Z,74.64
2019-02-05T10:10:38.044Z,74.86
2019-02-05T10:13:08.135Z,74.85
2019-02-05T10:15:38.709Z,74.82
2019-02-05T10:18:10.654Z,74.83
2019-02-05T10:20:40.231Z,74.70
2019-02-05T10:23:10.154Z,74.59
2019-02-05T10:25:49.208Z,74.18
2019-02-05T10:28:18.648Z,73.96
2019-02-05T10:30:48.128Z,73.81
2019-02-05T10:33:17.545Z,73.90
2019-02-05T10:35:46.990Z,73.48
2019-02-05T10:38:16.837Z,73.61
2019-02-05T10:40:46.283Z,73.42
2019-02-05T10:43:15.731Z,73.37
2019-02-05T10:45:45.590Z,73.54
2019-02-05T10:48:15.022Z,72.84
2019-02-05T10:50:44.458Z,72.98
2019-02-05T10:53:13.990Z,71.76
2019-02-05T10:55:43.461Z,71.25
2019-02-05T10:58:12.950Z,69.54
2019-02-05T11:00:42.457Z,67.57
2019-02-05T11:03:12.055Z,67.07
2019-02-05T11:05:41.429Z,66.75
2019-02-05T11:08:10.448Z,65.41
2019-02-05T11:10:40.164Z,63.47
2019-02-05T11:13:09.635Z,62.14
2019-02-05T11:15:39.056Z,61.60
2019-02-05T11:18:10.953Z,61.63
2019-02-05T11:20:40.450Z,61.21
2019-02-05T11:23:09.905Z,60.54
2019-02-05T11:25:42.518Z,60.31
2019-02-05T11:28:12.101Z,58.97
2019-02-05T11:30:43.857Z,58.02
2019-02-05T11:33:13.806Z,58.25
2019-02-05T11:35:43.522Z,57.82
2019-02-05T11:38:13.514Z,56.65
2019-02-05T11:40:43.085Z,55.95
2019-02-05T11:43:12.523Z,55.15
2019-02-05T11:45:41.968Z,54.75
2019-02-05T11:48:14.727Z,54.72
2019-02-05T11:50:44.313Z,54.42
2019-02-05T11:53:13.876Z,54.32
2019-02-05T11:55:43.578Z,52.96
2019-02-05T11:58:13.545Z,51.96
2019-02-05T12:01:03.233Z,52.11
2019-02-05T12:03:32.714Z,50.92
2019-02-05T12:06:02.209Z,50.93
2019-02-05T12:08:31.626Z,50.86
2019-02-05T12:11:01.023Z,50.75
2019-02-05T12:13:30.433Z,50.39
2019-02-05T12:15:59.950Z,49.90
2019-02-05T12:18:29.471Z,49.51
2019-02-05T12:20:58.876Z,49.70
2019-02-05T12:23:28.591Z,49.85
2019-02-05T12:25:58.014Z,49.30
2019-02-05T12:28:27.423Z,48.96
2019-02-05T12:30:56.926Z,48.72
2019-02-05T12:33:26.778Z,49.09
2019-02-05T12:35:56.167Z,48.11
2019-02-05T12:38:25.554Z,48.01
2019-02-05T12:40:56.772Z,47.67
2019-02-05T12:43:26.157Z,47.67
2019-02-05T12:45:55.992Z,47.30
2019-02-05T12:48:25.792Z,48.02
2019-02-05T12:50:55.340Z,47.33
2019-02-05T12:53:24.797Z,46.42
2019-02-05T12:55:55.255Z,46.51
2019-02-05T12:58:24.684Z,45.16
2019-02-05T13:00:59.733Z,45.13
2019-02-05T13:03:26.177Z,46.44
2019-02-05T13:05:55.567Z,46.29
2019-02-05T13:08:24.910Z,46.15
2019-02-05T13:11:21.029Z,46.03
2019-02-05T13:13:50.632Z,47.00
2019-02-05T13:16:20.001Z,47.30
2019-02-05T13:18:51.875Z,48.05
2019-02-05T13:21:20.510Z,48.28
2019-02-05T13:23:49.870Z,50.38
2019-02-05T13:26:19.841Z,51.63
2019-02-05T13:28:49.312Z,52.33
2019-02-05T13:31:21.112Z,53.14
2019-02-05T13:33:50.686Z,52.81
2019-02-05T13:36:22.578Z,53.08
2019-02-05T13:38:51.145Z,53.08
2019-02-05T13:41:20.907Z,53.87
2019-02-05T13:43:50.275Z,53.50
2019-02-05T13:46:19.621Z,52.37
2019-02-05T13:48:49.015Z,51.42
2019-02-05T13:51:19.254Z,50.25
2019-02-05T13:53:48.614Z,50.14
2019-02-05T13:56:18.280Z,50.26
2019-02-05T13:58:47.715Z,50.16
2019-02-05T14:01:19.993Z,50.39
2019-02-05T14:03:48.285Z,50.61
2019-02-05T14:06:17.715Z,50.92
2019-02-05T14:08:47.109Z,50.88
2019-02-05T14:11:19.742Z,51.20
2019-02-05T14:13:49.163Z,50.85
2019-02-05T14:16:18.591Z,51.00
2019-02-05T14:18:54.997Z,51.61
2019-02-05T14:21:19.310Z,52.43
2019-02-05T14:23:48.902Z,54.18
2019-02-05T14:26:18.310Z,55.18
2019-02-05T14:28:48.254Z,56.45
2019-02-05T14:31:17.667Z,57.02
2019-02-05T14:33:47.444Z,57.65
2019-02-05T14:36:16.792Z,57.94
2019-02-05T14:38:46.679Z,58.26
2019-02-05T14:41:16.096Z,59.53
2019-02-05T14:43:46.109Z,59.95
2019-02-05T14:46:15.568Z,60.95
2019-02-05T14:48:45.312Z,61.99
2019-02-05T14:51:14.739Z,62.50
2019-02-05T14:53:44.272Z,62.92
2019-02-05T14:56:13.761Z,63.06
2019-02-05T14:58:43.140Z,63.93
2019-02-05T15:01:12.603Z,63.93
2019-02-05T15:03:42.029Z,64.02
2019-02-05T15:06:11.420Z,64.66
2019-02-05T15:08:41.077Z,65.64
2019-02-05T15:11:13.655Z,67.12
2019-02-05T15:13:43.169Z,67.09
2019-02-05T15:16:12.585Z,67.16
2019-02-05T15:18:44.936Z,66.96
2019-02-05T15:21:13.207Z,67.11
2019-02-05T15:23:42.637Z,67.41
2019-02-05T15:26:12.030Z,68.69
2019-02-05T15:28:41.486Z,69.25
2019-02-05T15:31:10.919Z,69.34
2019-02-05T15:34:14.672Z,69.49
2019-02-05T15:36:46.642Z,70.36
2019-02-05T15:39:16.506Z,70.95
2019-02-05T15:41:45.880Z,71.68
2019-02-05T15:44:15.530Z,71.33
2019-02-05T15:46:44.902Z,71.95
2019-02-05T15:49:14.365Z,72.41
2019-02-05T15:51:43.793Z,71.82
2019-02-05T15:54:13.184Z,72.51
2019-02-05T15:56:42.538Z,72.65
2019-02-05T15:59:12.106Z,72.74
2019-02-05T16:01:41.505Z,73.04
2019-02-05T16:04:10.951Z,73.37
2019-02-05T16:06:40.337Z,73.56
2019-02-05T16:09:11.587Z,74.11
2019-02-05T16:11:40.955Z,74.20
2019-02-05T16:14:10.517Z,74.20
2019-02-05T16:16:39.877Z,74.31
2019-02-05T16:19:09.270Z,74.35
2019-02-05T16:21:38.679Z,74.33
2019-02-05T16:24:08.093Z,74.61
2019-02-05T16:26:37.508Z,75.00
2019-02-05T16:29:07.325Z,74.77
2019-02-05T16:31:36.711Z,75.31
2019-02-05T16:34:07.030Z,75.30
2019-02-05T16:36:36.370Z,75.05
2019-02-05T16:39:10.624Z,75.30
2019-02-05T16:41:40.074Z,75.52
2019-02-05T16:44:09.663Z,75.51
2019-02-05T16:46:39.140Z,75.46
2019-02-05T16:49:08.721Z,75.79
2019-02-05T16:51:38.250Z,75.70
2019-02-05T16:54:07.791Z,75.90
2019-02-05T16:56:37.332Z,75.84
2019-02-05T16:59:06.996Z,76.15
2019-02-05T17:01:36.468Z,75.99
2019-02-05T17:04:05.908Z,75.92
2019-02-05T17:06:35.308Z,75.95
2019-02-05T17:09:10.194Z,75.86
2019-02-05T17:11:39.829Z,75.76
2019-02-05T17:14:09.196Z,75.76
2019-02-05T17:16:38.685Z,75.59
2019-02-05T17:19:08.049Z,75.66
2019-02-05T17:21:37.485Z,75.75
2019-02-05T17:24:07.021Z,75.92
2019-02-05T17:26:36.608Z,75.91
2019-02-05T17:29:06.072Z,76.13
2019-02-05T17:31:35.451Z,76.64
2019-02-05T17:34:04.954Z,76.68
2019-02-05T17:36:34.416Z,77.37
2019-02-05T17:39:05.193Z,77.12
2019-02-05T17:41:34.699Z,77.25
2019-02-05T17:44:04.231Z,77.46
2019-02-05T17:46:33.679Z,77.30
2019-02-05T17:49:03.098Z,77.62
2019-02-05T17:51:32.522Z,78.18
2019-02-05T17:54:01.968Z,77.79
2019-02-05T17:56:31.352Z,77.97
2019-02-05T17:59:00.747Z,78.31
2019-02-05T18:01:30.104Z,78.37
2019-02-05T18:03:59.551Z,78.28
2019-02-05T18:06:28.932Z,78.34
2019-02-05T18:08:58.369Z,78.14
2019-02-05T18:11:27.738Z,78.20
2019-02-05T18:13:57.459Z,78.10
2019-02-05T18:16:26.875Z,77.88
2019-02-05T18:18:56.494Z,77.66
2019-02-05T18:21:25.845Z,77.80
2019-02-05T18:23:55.233Z,77.76
2019-02-05T18:26:24.582Z,77.80
2019-02-05T18:28:53.968Z,77.74
2019-02-05T18:31:23.585Z,77.89
2019-02-05T18:33:53.917Z,77.76
2019-02-05T18:36:23.344Z,77.97
2019-02-05T18:38:53.024Z,77.97
2019-02-05T18:41:22.396Z,78.18
2019-02-05T18:43:51.807Z,78.11
2019-02-05T18:46:21.223Z,78.00
2019-02-05T18:48:50.640Z,78.24
2019-02-05T18:51:20.056Z,77.62
2019-02-05T18:53:49.468Z,77.24
2019-02-05T18:56:18.907Z,77.09
2019-02-05T18:58:48.317Z,77.00
2019-02-05T19:01:17.789Z,77.06
2019-02-05T19:03:47.167Z,77.13
2019-02-05T19:06:16.567Z,77.28
2019-02-05T19:08:45.942Z,77.71
2019-02-05T19:11:15.398Z,77.50
2019-02-05T19:13:44.841Z,77.75
2019-02-05T19:16:14.264Z,77.67
2019-02-05T19:18:43.732Z,77.29
2019-02-05T19:21:13.105Z,77.18
2019-02-05T19:23:42.625Z,77.23
2019-02-05T19:26:20.403Z,77.54
2019-02-05T19:28:50.672Z,77.36
2019-02-05T19:31:26.059Z,77.58
2019-02-05T19:33:55.561Z,77.87
2019-02-05T19:36:25.524Z,77.64
2019-02-05T19:38:55.161Z,77.14
2019-02-05T19:41:24.571Z,77.26
2019-02-05T19:43:54.085Z,77.20
2019-02-05T19:46:41.298Z,77.16
2019-02-05T19:49:23.044Z,77.01
2019-02-05T19:51:52.483Z,77.80
2019-02-05T19:54:23.738Z,77.42
2019-02-05T19:56:54.169Z,77.47
2019-02-05T19:59:24.026Z,77.51
2019-02-05T20:01:54.439Z,77.44
2019-02-05T20:04:24.105Z,77.04
2019-02-05T20:06:53.467Z,76.69
2019-02-05T20:09:22.879Z,76.53
2019-02-05T20:11:52.248Z,76.70
2019-02-05T20:14:21.641Z,76.77
2019-02-05T20:16:50.995Z,76.67
2019-02-05T20:19:20.874Z,76.70
2019-02-05T20:21:50.363Z,76.80
2019-02-05T20:24:21.078Z,76.85
2019-02-05T20:26:50.510Z,76.79
2019-02-05T20:29:19.894Z,76.38
2019-02-05T20:31:49.326Z,76.72
2019-02-05T20:34:18.692Z,76.53
2019-02-05T20:36:48.119Z,76.35
2019-02-05T20:39:18.864Z,76.43
2019-02-05T20:41:48.574Z,76.43
2019-02-05T20:44:17.977Z,76.50
2019-02-05T20:46:47.403Z,76.73
2019-02-05T20:49:16.805Z,76.69
2019-02-05T20:51:46.590Z,76.55
2019-02-05T20:54:18.662Z,76.46
2019-02-05T20:56:48.882Z,76.64
2019-02-05T20:59:18.334Z,76.75
2019-02-05T21:01:47.687Z,76.66
2019-02-05T21:04:17.040Z,76.28
2019-02-05T21:06:46.802Z,76.13
2019-02-05T21:09:20.868Z,76.38
2019-02-05T21:11:50.285Z,76.48
2019-02-05T21:14:19.986Z,76.73
2019-02-05T21:16:49.476Z,76.83
2019-02-05T21:19:18.982Z,76.88
2019-02-05T21:21:48.760Z,76.99
2019-02-05T21:24:18.191Z,77.01
2019-02-05T21:26:47.542Z,77.15
2019-02-05T21:29:16.933Z,77.13
2019-02-05T21:31:46.304Z,76.90
2019-02-05T21:34:16.322Z,76.95
2019-02-05T21:36:48.081Z,76.90
2019-02-05T21:39:17.442Z,76.97
2019-02-05T21:41:46.894Z,76.90
2019-02-05T21:44:16.297Z,77.14
2019-02-05T21:46:45.627Z,77.41
2019-02-05T21:49:15.010Z,77.62
2019-02-05T21:51:44.388Z,77.72
2019-02-05T21:54:13.833Z,77.70
2019-02-05T21:56:43.270Z,77.70
2019-02-05T21:59:12.689Z,77.32
2019-02-05T22:01:42.249Z,77.55
2019-02-05T22:04:11.723Z,77.25
2019-02-05T22:06:41.189Z,77.17
2019-02-05T22:09:12.857Z,77.24
2019-02-05T22:11:42.323Z,77.79
2019-02-05T22:14:11.724Z,77.88
2019-02-05T22:16:41.326Z,77.45
2019-02-05T22:19:11.179Z,77.65
2019-02-05T22:21:40.772Z,77.65
2019-02-05T22:24:10.157Z,77.88
2019-02-05T22:26:40.555Z,78.09
2019-02-05T22:29:10.266Z,78.19
2019-02-05T22:31:40.536Z,78.15
2019-02-05T22:34:10.144Z,78.50
2019-02-05T22:36:39.488Z,78.32
2019-02-05T22:39:10.337Z,77.83
2019-02-05T22:41:39.710Z,77.57
2019-02-05T22:44:09.142Z,77.42
2019-02-05T22:46:38.977Z,76.94
2019-02-05T22:49:08.325Z,76.34
2019-02-05T22:51:37.951Z,76.15
2019-02-05T22:54:07.502Z,76.27
2019-02-05T22:56:36.913Z,76.30
2019-02-05T22:59:06.674Z,76.32
2019-02-05T23:01:56.510Z,76.22
2019-02-05T23:04:55.590Z,76.23
2019-02-05T23:07:26.975Z,76.08
2019-02-05T23:10:21.506Z,76.16
2019-02-05T23:13:11.263Z,76.13
2019-02-05T23:15:46.179Z,76.67
2019-02-05T23:18:15.756Z,76.84
2019-02-05T23:20:45.296Z,76.71
2019-02-05T23:23:14.850Z,76.84
2019-02-05T23:25:44.283Z,77.01
2019-02-05T23:28:13.971Z,77.30
2019-02-05T23:30:44.133Z,77.50
2019-02-05T23:33:13.825Z,77.52
2019-02-05T23:35:43.235Z,77.45
2019-02-05T23:38:12.622Z,77.77
2019-02-05T23:40:42.057Z,77.87
2019-02-05T23:43:11.434Z,77.98
2019-02-05T23:45:40.965Z,77.93
2019-02-05T23:48:10.435Z,77.59
2019-02-05T23:50:39.852Z,77.85
2019-02-05T23:53:09.274Z,77.73
2019-02-05T23:55:38.673Z,77.73
2019-02-05T23:58:08.080Z,77.62
